Time;durP1;ratioP1;P1;durP2;ratioP2;P2;SDS_P1;SDS_P2;PMS_P1;PMS_P2;Temp;Humidity;BMP_temperature;BMP_pressure;BME280_temperature;BME280_humidity;BME280_pressure;Samples;Min_cycle;Max_cycle;Signal;HPM_P1;HPM_P2
2022/09/25 00:01:00;;;;;;;24.05;15.73;;;13.20;99.90;;;-144.05;78.40;125687.94;5032621;28;20159;-77
2022/09/25 00:03:30;;;;;;;21.67;13.13;;;13.10;99.90;;;-144.05;78.05;125687.94;5032981;28;20137;-79
2022/09/25 00:06:08;;;;;;;22.02;12.40;;;13.10;99.90;;;-144.05;77.83;125687.94;5032890;28;20041;-78
2022/09/25 00:08:35;;;;;;;19.25;12.43;;;13.10;99.90;;;-144.05;77.46;125687.94;5032278;28;20485;-77
2022/09/25 00:11:16;;;;;;;20.83;11.95;;;13.10;99.90;;;-144.05;77.56;125687.94;5029655;28;20055;-80
2022/09/25 00:13:44;;;;;;;18.58;11.23;;;13.00;99.90;;;-144.05;77.64;125687.94;5032212;28;20030;-78
2022/09/25 00:16:22;;;;;;;19.55;11.30;;;13.00;99.90;;;-144.05;77.76;125687.94;5047699;28;20159;-77
2022/09/25 00:21:35;;;;;;;23.13;10.20;;;13.00;99.90;;;-144.05;77.09;125687.94;5033611;28;20082;-79
2022/09/25 00:24:07;;;;;;;16.00;10.40;;;13.00;99.90;;;-144.05;76.50;125687.94;5030908;28;20030;-79
2022/09/25 00:26:41;;;;;;;21.27;10.70;;;13.00;99.90;;;-144.05;76.60;125687.94;5031349;28;20037;-78
2022/09/25 00:29:14;;;;;;;18.13;10.02;;;12.90;99.90;;;-144.05;76.57;125687.94;5030950;28;20480;-78
2022/09/25 00:31:41;;;;;;;17.38;9.20;;;12.90;99.90;;;-144.05;76.48;125687.94;5032637;28;20033;-78
2022/09/25 00:34:07;;;;;;;19.90;9.30;;;12.90;99.90;;;-144.05;76.55;125687.94;5031404;28;20040;-78
2022/09/25 00:36:34;;;;;;;16.10;8.80;;;12.90;99.90;;;-144.05;76.59;125687.94;5031393;28;20108;-79
2022/09/25 00:39:00;;;;;;;15.00;8.90;;;13.00;99.90;;;-144.05;76.69;125687.94;5031540;28;20026;-78
2022/09/25 00:41:32;;;;;;;22.60;9.45;;;12.90;99.90;;;-144.05;76.59;125687.94;5032837;28;20140;-78
2022/09/25 00:44:01;;;;;;;17.42;9.40;;;12.90;99.90;;;-144.05;76.85;125687.94;5042844;28;20030;-78
2022/09/25 00:46:42;;;;;;;21.30;9.48;;;12.90;99.90;;;-144.05;77.05;125687.94;5047134;28;20037;-76
2022/09/25 00:49:21;;;;;;;13.55;9.30;;;12.90;99.90;;;-144.05;77.37;125687.94;5043713;28;20025;-80
2022/09/25 00:52:02;;;;;;;16.73;9.35;;;12.90;99.90;;;-144.05;77.70;125687.94;5031896;28;20087;-78
2022/09/25 00:55:06;;;;;;;15.25;8.60;;;12.80;99.90;;;-144.05;77.87;125687.94;5031977;28;20029;-78
2022/09/25 00:57:38;;;;;;;18.70;9.45;;;12.90;99.90;;;-144.05;77.92;125687.94;5021676;28;20045;-79
2022/09/25 01:00:11;;;;;;;14.93;10.13;;;12.90;99.90;;;-144.05;78.23;125687.94;5031732;28;20097;-80
2022/09/25 01:02:51;;;;;;;22.52;11.05;;;12.80;99.90;;;-144.05;78.40;125687.94;5031380;28;20480;-78
2022/09/25 01:05:29;;;;;;;14.32;9.68;;;12.90;99.90;;;-144.05;78.78;125687.94;5032850;28;20067;-78
2022/09/25 01:08:00;;;;;;;16.17;9.63;;;12.80;99.90;;;-144.05;78.97;125687.94;5032395;28;20064;-80
2022/09/25 01:10:27;;;;;;;15.20;9.40;;;12.80;99.90;;;-144.05;78.89;125687.94;5031419;28;20033;-79
2022/09/25 01:12:59;;;;;;;20.88;10.40;;;12.80;99.90;;;-144.05;79.02;125687.94;5032354;28;20045;-78
2022/09/25 01:15:51;;;;;;;18.27;10.93;;;12.80;99.90;;;-144.05;79.05;125687.94;5032241;28;20084;-77
2022/09/25 01:18:50;;;;;;;20.40;11.13;;;12.90;99.90;;;-144.05;79.17;125687.94;5032292;28;20108;-79
2022/09/25 01:21:51;;;;;;;18.70;9.93;;;12.80;99.90;;;-144.05;79.26;125687.94;5033989;28;20028;-79
2022/09/25 01:24:42;;;;;;;21.05;9.82;;;12.80;99.90;;;-144.05;79.46;125687.94;5035907;28;20036;-78
2022/09/25 01:27:40;;;;;;;20.63;9.43;;;12.80;99.90;;;-144.05;79.55;125687.94;5034571;28;20041;-77
2022/09/25 01:30:18;;;;;;;17.75;8.50;;;12.80;99.90;;;-144.05;79.75;125687.94;5035517;28;20087;-78
2022/09/25 01:32:58;;;;;;;22.48;8.23;;;12.80;99.90;;;-144.05;79.69;125687.94;5034632;28;20037;-78
2022/09/25 01:35:50;;;;;;;14.88;6.95;;;12.80;99.90;;;-144.05;80.06;125687.94;5035027;28;20084;-78
2022/09/25 01:38:49;;;;;;;18.42;7.15;;;12.70;99.90;;;-144.05;80.64;125687.94;5035912;28;20033;-78
2022/09/25 01:41:36;;;;;;;13.20;5.68;;;12.70;99.90;;;-144.05;81.01;125687.94;5034415;28;20129;-79
2022/09/25 01:44:13;;;;;;;11.23;6.15;;;12.60;99.90;;;-144.05;81.27;125687.94;5050636;28;20033;-78
2022/09/25 01:46:50;;;;;;;11.63;6.28;;;12.60;99.90;;;-144.05;81.39;125687.94;5035338;28;20037;-77
2022/09/25 01:49:41;;;;;;;13.90;6.70;;;12.60;99.90;;;-144.05;81.74;125687.94;5035470;28;20034;-80
2022/09/25 01:52:18;;;;;;;12.35;5.68;;;12.60;99.90;;;-144.05;81.99;125687.94;5035321;28;20166;-79
2022/09/25 01:55:05;;;;;;;15.13;6.30;;;12.60;99.90;;;-144.05;82.11;125687.94;5033651;28;20484;-79
2022/09/25 01:57:55;;;;;;;18.15;5.03;;;12.60;99.90;;;-144.05;82.03;125687.94;5035511;28;20116;-79
2022/09/25 02:00:24;;;;;;;10.65;4.95;;;12.50;99.90;;;-144.05;81.93;125687.94;5035530;28;20511;-79
2022/09/25 02:02:58;;;;;;;13.57;4.60;;;12.50;99.90;;;-144.05;82.05;125687.94;5034861;28;20025;-81
2022/09/25 02:05:44;;;;;;;14.38;4.18;;;12.50;99.90;;;-144.05;81.93;125687.94;5035159;28;20041;-78
2022/09/25 02:08:22;;;;;;;;;;;12.40;99.90;;;-144.05;81.94;125687.94;5035916;28;20026;-79
2022/09/25 02:11:01;;;;;;;13.00;3.80;;;12.40;99.90;;;-144.05;81.31;125687.94;5049958;28;19909;-77
2022/09/25 02:13:46;;;;;;;9.35;3.65;;;12.40;99.90;;;-144.05;81.77;125687.94;5033110;28;20029;-79
2022/09/25 02:16:23;;;;;;;15.60;3.75;;;12.40;99.90;;;-144.05;81.82;125687.94;5035177;28;20029;-80
2022/09/25 02:22:11;;;;;;;12.18;4.28;;;12.40;99.90;;;-144.05;81.42;125687.94;5034751;28;20036;-78
2022/09/25 02:24:58;;;;;;;12.45;2.90;;;12.40;99.90;;;-144.05;81.44;125687.94;5034280;28;20083;-78
2022/09/25 02:27:27;;;;;;;11.07;4.07;;;12.30;99.90;;;-144.05;81.63;125687.94;5034049;28;20037;-78
2022/09/25 02:29:57;;;;;;;18.88;4.00;;;12.30;99.90;;;-144.05;81.71;125687.94;5033819;28;20037;-77
2022/09/25 02:32:31;;;;;;;17.83;4.05;;;12.30;99.90;;;-144.05;81.40;125687.94;5033388;28;20025;-77
2022/09/25 02:34:59;;;;;;;11.27;3.25;;;12.30;99.90;;;-144.05;80.86;125687.94;5034533;28;20022;-77
2022/09/25 02:37:26;;;;;;;13.40;3.38;;;12.20;99.90;;;-144.05;80.89;125687.94;5033058;28;20084;-77
2022/09/25 02:40:01;;;;;;;11.55;2.88;;;12.20;99.90;;;-144.05;80.67;125687.94;5034099;28;20025;-78
2022/09/25 02:43:09;;;;;;;13.45;3.20;;;12.20;99.90;;;-144.05;80.40;125687.94;5032353;28;20022;-78
2022/09/25 02:46:17;;;;;;;10.80;3.30;;;12.20;99.90;;;-144.05;80.38;125687.94;5033566;28;20116;-79
2022/09/25 02:48:58;;;;;;;7.45;3.05;;;12.20;99.90;;;-144.05;80.67;125687.94;5033458;28;20051;-79
2022/09/25 02:52:02;;;;;;;10.18;2.30;;;12.20;99.90;;;-144.05;80.79;125687.94;5033924;28;20060;-77
2022/09/25 02:54:50;;;;;;;7.55;2.72;;;12.20;99.90;;;-144.05;81.05;125687.94;5033724;28;20396;-79
2022/09/25 02:57:44;;;;;;;8.98;2.60;;;12.20;99.90;;;-144.05;81.19;125687.94;5033022;28;20559;-79
2022/09/25 03:00:12;;;;;;;7.53;2.15;;;12.20;99.90;;;-144.05;81.42;125687.94;5033569;28;20441;-78
2022/09/25 03:02:43;;;;;;;10.60;3.10;;;12.20;99.90;;;-144.05;81.42;125687.94;5033779;28;20100;-78
2022/09/25 03:05:14;;;;;;;9.05;2.80;;;12.10;99.90;;;-144.05;81.35;125687.94;5033828;28;20064;-79
2022/09/25 03:10:28;;;;;;;8.68;2.78;;;12.10;99.90;;;-144.05;81.44;125687.94;5034019;28;20036;-78
2022/09/25 03:12:53;;;;;;;7.32;2.50;;;12.10;99.90;;;-144.05;81.42;125687.94;5033601;28;20024;-76
2022/09/25 03:15:22;;;;;;;9.77;2.67;;;12.10;99.90;;;-144.05;81.40;125687.94;5033645;28;20151;-77
2022/09/25 03:17:51;;;;;;;10.68;2.85;;;12.10;99.90;;;-144.05;81.14;125687.94;5033792;28;20025;-78
2022/09/25 03:20:17;;;;;;;12.38;2.83;;;12.10;99.90;;;-144.05;81.32;125687.94;5031874;28;20055;-79
2022/09/25 03:22:42;;;;;;;9.50;2.42;;;12.10;99.90;;;-144.05;81.37;125687.94;5031573;28;20083;-79
2022/09/25 03:25:08;;;;;;;10.25;2.67;;;12.10;99.90;;;-144.05;81.02;125687.94;5031839;28;20025;-78
2022/09/25 03:27:35;;;;;;;6.40;2.38;;;12.00;99.90;;;-144.05;80.80;125687.94;5033351;28;20111;-79
2022/09/25 03:30:01;;;;;;;11.15;2.65;;;12.00;99.90;;;-144.05;80.90;125687.94;5031531;28;20025;-78
2022/09/25 03:32:27;;;;;;;8.73;2.53;;;12.00;99.90;;;-144.05;81.02;125687.94;5031933;28;20030;-78
2022/09/25 03:34:53;;;;;;;11.25;2.42;;;12.10;99.90;;;-144.05;80.75;125687.94;5031815;28;20529;-79
2022/09/25 03:37:19;;;;;;;10.57;2.50;;;12.00;99.90;;;-144.05;80.59;125687.94;5031688;28;20025;-78
2022/09/25 03:39:45;;;;;;;7.57;2.50;;;12.00;99.90;;;-144.05;80.62;125687.94;5033228;28;20080;-79
2022/09/25 03:42:11;;;;;;;10.35;2.75;;;12.00;99.90;;;-144.05;80.60;125687.94;5032697;28;20523;-79
2022/09/25 03:44:36;;;;;;;9.02;2.20;;;12.00;99.90;;;-144.05;80.69;125687.94;5032409;28;20381;-77
2022/09/25 03:47:02;;;;;;;10.55;3.13;;;12.00;99.90;;;-144.05;80.66;125687.94;5033118;28;20108;-81
2022/09/25 03:49:28;;;;;;;9.75;2.10;;;12.00;99.90;;;-144.05;80.69;125687.94;5033460;28;20408;-78
2022/09/25 03:51:54;;;;;;;13.77;3.05;;;12.00;99.90;;;-144.05;80.46;125687.94;5033750;28;20496;-79
2022/09/25 03:54:20;;;;;;;8.15;2.40;;;11.90;99.90;;;-144.05;80.55;125687.94;5032652;28;20056;-77
2022/09/25 03:56:45;;;;;;;11.73;3.05;;;11.90;99.90;;;-144.05;80.40;125687.94;5031630;28;20029;-78
2022/09/25 03:59:11;;;;;;;12.25;2.55;;;11.90;99.90;;;-144.05;80.47;125687.94;5030946;28;20069;-79
2022/09/25 04:01:37;;;;;;;9.60;2.78;;;11.90;99.90;;;-144.05;80.29;125687.94;5038759;28;20056;-80
2022/09/25 04:04:03;;;;;;;15.68;2.47;;;11.90;99.90;;;-144.05;80.40;125687.94;5034941;28;20049;-80
2022/09/25 04:06:29;;;;;;;8.88;2.58;;;11.80;99.90;;;-144.05;79.75;125687.94;5033770;28;20033;-77
2022/09/25 04:08:55;;;;;;;7.13;2.13;;;11.80;99.90;;;-144.05;79.80;125687.94;5033396;28;20033;-80
2022/09/25 04:11:23;;;;;;;9.70;2.13;;;11.80;99.90;;;-144.05;80.02;125687.94;5034098;28;20033;-78
2022/09/25 04:13:51;;;;;;;13.02;2.90;;;11.80;99.90;;;-144.05;80.17;125687.94;5032008;28;20033;-77
2022/09/25 04:16:19;;;;;;;8.50;1.95;;;11.70;99.90;;;-144.05;80.02;125687.94;5033870;28;20396;-78
2022/09/25 04:18:45;;;;;;;7.13;2.38;;;11.70;99.90;;;-144.05;80.10;125687.94;5033184;28;20021;-80
2022/09/25 04:21:13;;;;;;;6.80;2.47;;;11.70;99.90;;;-144.05;80.27;125687.94;5033246;28;20056;-78
2022/09/25 04:23:40;;;;;;;7.60;2.50;;;11.60;99.90;;;-144.05;80.44;125687.94;5033642;28;20463;-78
2022/09/25 04:26:08;;;;;;;5.18;2.10;;;11.60;99.90;;;-144.05;80.51;125687.94;5033072;28;20117;-77
2022/09/25 04:28:35;;;;;;;7.72;2.45;;;11.60;99.90;;;-144.05;80.55;125687.94;5032133;28;20112;-78
2022/09/25 04:31:02;;;;;;;11.60;2.00;;;11.50;99.90;;;-144.05;80.57;125687.94;5032668;28;20036;-77
2022/09/25 04:33:46;;;;;;;11.68;2.15;;;11.60;99.90;;;-144.05;80.82;125687.94;5033020;28;20029;-78
2022/09/25 04:36:17;;;;;;;9.05;2.33;;;11.50;99.90;;;-144.05;81.00;125687.94;5032504;28;20032;-79
2022/09/25 04:38:43;;;;;;;11.52;2.38;;;11.50;99.90;;;-144.05;81.02;125687.94;5032616;28;20028;-79
2022/09/25 04:41:10;;;;;;;9.05;2.35;;;11.40;99.90;;;-144.05;80.82;125687.94;5031373;28;20026;-80
2022/09/25 04:43:36;;;;;;;7.53;2.58;;;11.40;99.90;;;-144.05;80.93;125687.94;5032441;28;20032;-79
2022/09/25 04:46:09;;;;;;;11.68;2.70;;;11.30;99.90;;;-144.05;80.87;125687.94;5032657;28;20514;-79
2022/09/25 04:48:36;;;;;;;8.75;2.67;;;11.20;99.90;;;-144.05;80.84;125687.94;5031099;28;20060;-77
2022/09/25 04:51:04;;;;;;;6.10;2.25;;;11.20;99.90;;;-144.05;81.11;125687.94;5032933;28;20037;-80
2022/09/25 04:53:35;;;;;;;7.72;1.95;;;11.10;99.90;;;-144.05;81.27;125687.94;5033245;28;20029;-79
2022/09/25 04:56:10;;;;;;;10.43;2.28;;;11.00;99.90;;;-144.05;81.17;125687.94;5031727;28;20026;-80
2022/09/25 04:58:36;;;;;;;8.45;2.08;;;10.90;99.90;;;-144.05;81.21;125687.94;5032266;28;20081;-78
2022/09/25 05:01:07;;;;;;;6.40;1.92;;;10.80;99.90;;;-144.05;81.34;125687.94;5033174;28;20029;-78
2022/09/25 05:03:34;;;;;;;7.80;2.60;;;10.70;99.90;;;-144.05;81.40;125687.94;5045418;28;20030;-77
2022/09/25 05:06:00;;;;;;;5.57;1.77;;;10.70;99.90;;;-144.05;81.72;125687.94;5047405;28;20116;-77
2022/09/25 05:08:26;;;;;;;10.77;2.25;;;10.60;99.90;;;-144.05;81.84;125687.94;5042653;28;20220;-79
2022/09/25 05:10:52;;;;;;;5.93;1.90;;;10.60;99.90;;;-144.05;81.88;125687.94;5034857;28;20376;-78
2022/09/25 05:13:18;;;;;;;9.00;1.92;;;10.50;99.90;;;-144.05;82.02;125687.94;5034398;28;20057;-78
2022/09/25 05:15:44;;;;;;;6.80;2.15;;;10.50;99.90;;;-144.05;82.35;125687.94;5033855;28;20038;-81
2022/09/25 05:18:21;;;;;;;6.13;1.88;;;10.40;99.90;;;-144.05;82.47;125687.94;5034810;28;20029;-78
2022/09/25 05:20:48;;;;;;;6.35;2.05;;;10.40;99.90;;;-144.05;82.40;125687.94;5034815;28;20022;-79
2022/09/25 05:23:15;;;;;;;5.80;2.45;;;10.30;99.90;;;-144.05;82.77;125687.94;5034092;28;20059;-78
2022/09/25 05:25:42;;;;;;;8.85;2.10;;;10.30;99.90;;;-144.05;82.97;125687.94;5035546;28;20044;-80
2022/09/25 05:28:10;;;;;;;8.70;2.08;;;10.20;99.90;;;-144.05;82.81;125687.94;5035503;28;20136;-80
2022/09/25 05:30:37;;;;;;;11.35;2.42;;;10.20;99.90;;;-144.05;82.78;125687.94;5034485;28;20033;-78
2022/09/25 05:33:03;;;;;;;6.30;2.67;;;10.20;99.90;;;-144.05;82.80;125687.94;5033222;28;20030;-79
2022/09/25 05:35:32;;;;;;;9.50;2.85;;;10.10;99.90;;;-144.05;83.17;125687.94;5034222;28;20029;-79
2022/09/25 05:37:58;;;;;;;6.60;2.30;;;10.10;99.90;;;-144.05;83.17;125687.94;5033774;28;20021;-78
2022/09/25 05:40:25;;;;;;;7.78;2.20;;;10.00;99.90;;;-144.05;83.39;125687.94;5034157;28;20063;-80
2022/09/25 05:42:54;;;;;;;8.32;2.70;;;10.00;99.90;;;-144.05;83.34;125687.94;5034035;28;20037;-79
2022/09/25 05:45:22;;;;;;;5.38;2.67;;;9.90;99.90;;;-144.05;83.50;125687.94;5034108;28;20025;-80
2022/09/25 05:47:48;;;;;;;11.35;3.20;;;9.90;99.90;;;-144.05;83.73;125687.94;5034095;28;20080;-80
2022/09/25 05:50:16;;;;;;;7.38;2.40;;;9.80;99.90;;;-144.05;83.86;125687.94;5032917;28;20033;-78
2022/09/25 05:52:42;;;;;;;6.97;2.47;;;9.80;99.90;;;-144.05;83.94;125687.94;5033396;28;20044;-81
2022/09/25 05:55:10;;;;;;;6.57;2.40;;;9.80;99.90;;;-144.05;83.96;125687.94;5033984;28;20061;-79
2022/09/25 05:57:37;;;;;;;5.80;1.90;;;9.80;99.90;;;-144.05;83.93;125687.94;5034370;28;20022;-79
2022/09/25 06:00:10;;;;;;;7.78;2.70;;;9.80;99.90;;;-144.05;83.77;125687.94;5033286;28;20172;-77
2022/09/25 06:02:36;;;;;;;9.07;2.63;;;9.80;99.90;;;-144.05;84.10;125687.94;5033287;28;20021;-80
2022/09/25 06:05:02;;;;;;;8.02;2.50;;;9.70;99.90;;;-144.05;83.97;125687.94;5032695;28;20400;-77
2022/09/25 06:07:28;;;;;;;13.40;3.67;;;9.70;99.90;;;-144.05;84.24;125687.94;5036199;28;20040;-77
2022/09/25 06:09:53;;;;;;;6.95;2.88;;;9.70;99.90;;;-144.05;84.51;125687.94;5038004;28;20052;-79
2022/09/25 06:12:21;;;;;;;8.82;2.75;;;9.80;99.90;;;-144.05;84.26;125687.94;5038463;28;20197;-79
2022/09/25 06:14:47;;;;;;;10.07;2.92;;;9.80;99.90;;;-144.05;84.49;125687.94;5039374;28;20104;-79
2022/09/25 06:17:13;;;;;;;7.45;3.13;;;9.90;99.90;;;-144.05;84.57;125687.94;5040423;28;20064;-77
2022/09/25 06:19:39;;;;;;;8.20;2.80;;;10.00;99.90;;;-144.05;84.56;125687.94;5036459;28;20532;-78
2022/09/25 06:22:05;;;;;;;9.68;3.10;;;10.00;99.90;;;-144.05;84.66;125687.94;5037611;28;20096;-80
2022/09/25 06:24:31;;;;;;;7.00;2.75;;;10.00;99.90;;;-144.05;84.68;125687.94;5038370;28;20037;-78
2022/09/25 06:26:56;;;;;;;6.70;2.75;;;10.10;99.90;;;-144.05;84.68;125687.94;5037172;28;20044;-79
2022/09/25 06:29:22;;;;;;;7.10;2.97;;;10.10;99.90;;;-144.05;84.81;125687.94;5039740;28;20053;-78
2022/09/25 06:31:49;;;;;;;7.88;2.90;;;10.20;99.90;;;-144.05;85.09;125687.94;5039377;28;20029;-78
2022/09/25 06:34:15;;;;;;;6.10;3.10;;;10.30;99.90;;;-144.05;85.35;125687.94;5039358;28;20052;-78
2022/09/25 06:36:41;;;;;;;6.70;3.17;;;10.50;99.90;;;-144.05;85.54;125687.94;5039975;28;20029;-79
2022/09/25 06:39:07;;;;;;;9.40;3.38;;;10.70;99.90;;;-144.05;86.02;125687.94;5039366;28;20036;-79
2022/09/25 06:41:34;;;;;;;9.52;3.10;;;10.90;99.90;;;-144.05;85.99;125687.94;5038857;28;20036;-80
2022/09/25 06:44:00;;;;;;;8.70;3.50;;;11.20;99.90;;;-144.05;85.41;125687.94;5038236;28;20422;-80
2022/09/25 06:46:26;;;;;;;4.65;2.45;;;11.40;99.90;;;-144.05;84.77;125687.94;5040830;28;20025;-80
2022/09/25 06:48:56;;;;;;;11.57;3.28;;;11.60;99.90;;;-144.05;84.03;125687.94;5041070;28;20538;-79
2022/09/25 06:51:24;;;;;;;9.55;3.55;;;11.90;99.90;;;-144.05;82.40;125687.94;5040349;28;20030;-79
2022/09/25 06:53:54;;;;;;;9.20;2.58;;;12.10;99.90;;;-144.05;80.60;125687.94;5041212;28;20033;-78
2022/09/25 06:56:20;;;;;;;7.40;2.45;;;12.40;99.90;;;-144.05;79.63;125687.94;5039967;28;20029;-80
2022/09/25 06:58:46;;;;;;;6.65;2.17;;;12.60;99.90;;;-144.05;77.98;125687.94;5040843;28;20384;-79
2022/09/25 07:01:13;;;;;;;6.68;2.50;;;12.60;99.90;;;-144.05;76.62;125687.94;5039680;28;20048;-79
2022/09/25 07:03:47;;;;;;;9.60;2.42;;;12.50;99.90;;;-144.05;74.04;125687.94;5040668;28;20037;-79
2022/09/25 07:06:30;;;;;;;10.50;3.07;;;12.50;99.90;;;-144.05;73.23;125687.94;5039136;28;20124;-79
2022/09/25 07:08:56;;;;;;;8.32;3.05;;;12.70;99.90;;;-144.05;72.20;125687.94;5040115;28;20329;-78
2022/09/25 07:11:30;;;;;;;7.10;2.40;;;13.00;99.90;;;-144.05;70.48;125687.94;5040880;28;20044;-77
2022/09/25 07:13:56;;;;;;;6.90;2.45;;;13.20;99.90;;;-144.05;69.40;125687.94;5059102;23;20029;-80
2022/09/25 07:16:27;;;;;;;6.28;2.15;;;13.50;99.90;;;-144.05;68.08;125687.94;5054775;28;20081;-79
2022/09/25 07:19:02;;;;;;;8.65;2.28;;;13.70;99.90;;;-144.05;67.79;125687.94;5054035;28;20063;-80
2022/09/25 07:21:30;;;;;;;8.75;2.83;;;13.90;99.90;;;-144.05;66.43;125687.94;5054635;28;20028;-79
2022/09/25 07:23:57;;;;;;;7.53;1.92;;;14.00;99.90;;;-144.05;64.88;125687.94;5042156;28;20030;-81
2022/09/25 07:26:32;;;;;;;8.40;2.22;;;14.20;99.90;;;-144.05;64.84;125687.94;5021915;28;20078;-79
2022/09/25 07:29:05;;;;;;;6.43;1.77;;;14.30;99.90;;;-144.05;64.08;125687.94;5021039;28;20026;-79
2022/09/25 07:31:34;;;;;;;11.73;2.45;;;14.50;99.90;;;-144.05;64.07;125687.94;5020498;28;20148;-79
2022/09/25 07:34:07;;;;;;;10.07;1.90;;;14.60;99.90;;;-144.05;63.17;125687.94;5019670;28;20026;-80
2022/09/25 07:36:37;;;;;;;6.93;1.95;;;14.90;99.90;;;-144.05;62.83;125687.94;5021201;28;20424;-79
2022/09/25 07:39:05;;;;;;;9.15;1.77;;;15.10;99.90;;;-144.05;62.29;125687.94;5019265;28;20025;-78
2022/09/25 07:41:32;;;;;;;9.68;2.22;;;15.30;99.90;;;-144.05;59.89;125687.94;5020431;28;20086;-78
2022/09/25 07:43:58;;;;;;;6.50;1.50;;;15.30;99.90;;;-144.05;60.20;125687.94;5020373;28;20084;-79
2022/09/25 07:46:30;;;;;;;9.82;2.00;;;15.40;99.90;;;-144.05;59.58;125687.94;5020407;28;20037;-77
2022/09/25 07:48:55;;;;;;;5.18;1.60;;;15.50;99.90;;;-144.05;59.24;125687.94;5016425;28;20029;-77
2022/09/25 07:51:22;;;;;;;7.25;1.80;;;15.60;99.90;;;-144.05;57.75;125687.94;5017764;28;20088;-79
2022/09/25 07:53:49;;;;;;;10.23;1.65;;;15.70;99.90;;;-144.05;56.83;125687.94;5019007;28;20026;-79
2022/09/25 07:56:16;;;;;;;8.70;1.67;;;15.70;99.90;;;-144.05;57.45;125687.94;5020053;28;20030;-77
2022/09/25 07:58:42;;;;;;;6.60;1.25;;;15.80;99.90;;;-144.05;56.57;125687.94;5019543;28;20021;-80
2022/09/25 08:01:12;;;;;;;10.85;1.92;;;15.90;99.90;;;-144.05;57.53;125687.94;5018249;28;20025;-78
2022/09/25 08:03:39;;;;;;;5.72;1.80;;;15.80;99.90;;;-144.05;57.38;125687.94;5017971;28;20060;-78
2022/09/25 08:06:10;;;;;;;6.00;1.73;;;15.80;99.90;;;-144.05;57.44;125687.94;5015490;28;20057;-78
2022/09/25 08:08:41;;;;;;;8.25;1.50;;;15.80;99.90;;;-144.05;56.96;125687.94;5018679;28;20030;-78
2022/09/25 08:11:12;;;;;;;7.25;1.70;;;15.90;99.90;;;-144.05;56.57;125687.94;5019106;28;20036;-77
2022/09/25 08:13:40;;;;;;;16.48;2.17;;;15.80;99.90;;;-144.05;57.08;125687.94;5020594;28;20489;-79
2022/09/25 08:16:15;;;;;;;8.88;1.35;;;15.60;99.90;;;-144.05;57.48;125687.94;5021534;28;20026;-78
2022/09/25 08:18:45;;;;;;;8.18;1.65;;;15.40;99.90;;;-144.05;58.17;125687.94;5020301;28;20405;-78
2022/09/25 08:21:15;;;;;;;7.68;1.35;;;15.30;99.90;;;-144.05;57.61;125687.94;5019724;28;20022;-77
2022/09/25 08:23:47;;;;;;;7.22;1.58;;;15.20;99.90;;;-144.05;58.31;125687.94;5019776;28;20030;-77
2022/09/25 08:26:14;;;;;;;3.28;1.38;;;15.00;99.90;;;-144.05;58.55;125687.94;5019642;28;20097;-79
2022/09/25 08:28:41;;;;;;;8.93;1.85;;;15.10;99.90;;;-144.05;58.48;125687.94;5020661;28;20022;-78
2022/09/25 08:31:07;;;;;;;4.80;1.52;;;15.20;99.90;;;-144.05;57.87;125687.94;5019504;28;20396;-79
2022/09/25 08:33:34;;;;;;;7.22;1.45;;;15.20;99.90;;;-144.05;57.41;125687.94;5025659;28;20014;-78
2022/09/25 08:36:04;;;;;;;8.65;1.33;;;15.40;99.90;;;-144.05;56.31;125687.94;5032325;28;20121;-77
2022/09/25 08:38:32;;;;;;;8.27;1.40;;;15.60;99.90;;;-144.05;54.89;125687.94;5029060;28;20026;-77
2022/09/25 08:41:17;;;;;;;5.53;1.52;;;15.80;99.90;;;-144.05;54.61;125687.94;5023903;28;20041;-81
2022/09/25 08:44:13;;;;;;;7.10;1.65;;;16.20;99.90;;;-144.05;53.09;125687.94;5028140;28;20567;-78
2022/09/25 08:50:13;;;;;;;8.15;1.30;;;16.80;99.90;;;-144.05;52.14;125687.94;5034481;28;20073;-79
2022/09/25 08:52:46;;;;;;;8.73;1.75;;;16.80;99.90;;;-144.05;52.67;125687.94;5034294;28;20105;-79
2022/09/25 08:56:13;;;;;;;5.28;1.52;;;17.20;99.90;;;-144.05;49.87;125687.94;5034334;28;20428;-80
2022/09/25 08:58:25;;;;;;;9.60;1.52;;;17.50;99.90;;;-144.05;49.92;125687.94;5031565;28;20026;-79
2022/09/25 09:01:06;;;;;;;6.25;1.15;;;17.60;99.90;;;-144.05;49.03;125687.94;5031838;28;20053;-80
2022/09/25 09:03:47;;;;;;;5.53;1.13;;;17.50;99.90;;;-144.05;49.71;125687.94;5029845;28;20030;-80
2022/09/25 09:06:16;;;;;;;4.50;1.60;;;17.40;99.90;;;-144.05;49.41;125687.94;5020881;28;20033;-78
2022/09/25 09:09:01;;;;;;;4.78;1.30;;;17.50;99.90;;;-144.05;49.83;125687.94;5019665;28;20030;-79
2022/09/25 09:11:39;;;;;;;6.65;1.15;;;17.50;99.90;;;-144.05;49.05;125687.94;5017658;28;20252;-79
2022/09/25 09:14:16;;;;;;;5.00;1.55;;;17.70;99.90;;;-144.05;48.58;125687.94;5014535;28;20064;-78
2022/09/25 09:16:59;;;;;;;7.45;1.30;;;18.10;99.90;;;-144.05;45.83;125687.94;5016011;28;20057;-80
2022/09/25 09:19:26;;;;;;;8.48;1.27;;;18.30;99.90;;;-144.05;45.88;125687.94;5015257;28;20439;-79
2022/09/25 09:22:10;;;;;;;7.03;1.13;;;18.30;99.90;;;-144.05;45.59;125687.94;5014995;28;20128;-80
2022/09/25 09:24:58;;;;;;;7.20;1.23;;;18.40;99.90;;;-144.05;45.95;125687.94;5013313;28;20037;-78
2022/09/25 09:28:18;;;;;;;9.05;1.77;;;18.50;99.90;;;-144.05;45.55;125687.94;5013241;28;20026;-78
2022/09/25 09:31:15;;;;;;;5.55;1.27;;;18.70;99.90;;;-144.05;44.27;125687.94;5014035;28;20029;-78
2022/09/25 09:34:07;;;;;;;5.65;1.30;;;18.60;99.90;;;-144.05;44.23;125687.94;5015364;28;20037;-79
2022/09/25 09:36:55;;;;;;;3.75;1.05;;;18.50;99.90;;;-144.05;44.04;125687.94;5015688;28;20485;-79
2022/09/25 09:39:53;;;;;;;6.22;1.30;;;18.10;99.90;;;-144.05;45.84;125687.94;5014807;28;20034;-79
2022/09/25 09:43:16;;;;;;;4.97;1.08;;;17.70;99.90;;;-144.05;45.47;125687.94;5016226;28;20113;-79
2022/09/25 09:46:04;;;;;;;6.43;1.20;;;18.10;99.90;;;-144.05;42.26;125687.94;5019760;28;20111;-78
2022/09/25 09:49:08;;;;;;;6.80;0.73;;;18.70;99.90;;;-144.05;42.32;125687.94;5019538;28;20034;-78
2022/09/25 09:51:56;;;;;;;5.43;1.10;;;18.80;99.90;;;-144.05;43.12;125687.94;5020052;28;20022;-79
2022/09/25 09:54:56;;;;;;;5.70;1.20;;;18.50;99.90;;;-144.05;42.96;125687.94;5021262;28;20042;-79
2022/09/25 09:57:44;;;;;;;5.20;1.13;;;18.60;99.90;;;-144.05;43.13;125687.94;5020103;28;20092;-79
2022/09/25 10:00:19;;;;;;;3.00;0.57;;;18.60;99.90;;;-144.05;43.40;125687.94;5020407;28;20083;-78
2022/09/25 10:02:49;;;;;;;5.78;1.33;;;18.50;99.90;;;-144.05;43.41;125687.94;5021477;28;20105;-77
2022/09/25 10:05:31;;;;;;;4.72;1.10;;;18.10;99.90;;;-144.05;45.05;125687.94;5018312;28;20030;-80
2022/09/25 10:07:58;;;;;;;7.35;1.20;;;17.50;99.90;;;-144.05;45.19;125687.94;5021910;28;20033;-76
2022/09/25 10:10:41;;;;;;;7.80;1.00;;;17.60;99.90;;;-144.05;43.91;125687.94;5019840;28;20030;-80
2022/09/25 10:13:21;;;;;;;5.57;1.15;;;18.10;99.90;;;-144.05;42.65;125687.94;5036084;28;20416;-78
2022/09/25 10:16:10;;;;;;;4.93;0.85;;;18.50;99.90;;;-144.05;41.21;125687.94;5018910;28;20049;-77
2022/09/25 10:19:13;;;;;;;1.90;0.55;;;18.70;99.90;;;-144.05;40.22;125687.94;5018387;28;20022;-78
2022/09/25 10:21:59;;;;;;;4.38;0.88;;;19.20;99.90;;;-144.05;40.31;125687.94;5020220;28;20054;-77
2022/09/25 10:25:00;;;;;;;3.67;0.82;;;19.40;99.90;;;-144.05;39.69;125687.94;5022746;28;20084;-78
2022/09/25 10:27:35;;;;;;;2.72;0.88;;;19.40;99.90;;;-144.05;38.29;125687.94;5022947;28;20030;-79
2022/09/25 10:30:10;;;;;;;4.35;0.80;;;19.40;99.90;;;-144.05;38.24;125687.94;5021041;28;20029;-79
2022/09/25 10:32:56;;;;;;;3.20;1.00;;;19.70;99.90;;;-144.05;39.36;125687.94;5020395;28;20030;-79
2022/09/25 10:35:44;;;;;;;4.28;0.88;;;19.60;99.90;;;-144.05;40.09;125687.94;5016678;28;20520;-77
2022/09/25 10:38:29;;;;;;;4.10;1.67;;;19.10;99.90;;;-144.05;40.23;125687.94;5021331;28;20124;-78